sensor_id;sensor_type;location;lat;lon;timestamp;temperature;humidity
13589;DHT22;6865;52.552;13.434;2022-12-08T00:01:18;1.20;99.90
13589;DHT22;6865;52.552;13.434;2022-12-08T00:03:45;1.10;99.90
13589;DHT22;6865;52.552;13.434;2022-12-08T00:06:31;0.70;99.90
13589;DHT22;6865;52.552;13.434;2022-12-08T00:09:23;1.10;99.90
13589;DHT22;6865;52.552;13.434;2022-12-08T00:14:18;0.90;99.90
13589;DHT22;6865;52.552;13.434;2022-12-08T00:16:45;1.00;99.90
13589;DHT22;6865;52.552;13.434;2022-12-08T00:19:11;0.90;99.90
13589;DHT22;6865;52.552;13.434;2022-12-08T00:21:38;0.90;99.90
13589;DHT22;6865;52.552;13.434;2022-12-08T00:24:05;0.90;99.90
13589;DHT22;6865;52.552;13.434;2022-12-08T00:26:31;0.90;99.90
13589;DHT22;6865;52.552;13.434;2022-12-08T00:28:58;0.90;99.90
13589;DHT22;6865;52.552;13.434;2022-12-08T00:31:24;0.90;99.90
13589;DHT22;6865;52.552;13.434;2022-12-08T00:33:51;0.90;99.90
13589;DHT22;6865;52.552;13.434;2022-12-08T00:36:18;0.90;99.90
13589;DHT22;6865;52.552;13.434;2022-12-08T00:38:44;1.00;99.90
13589;DHT22;6865;52.552;13.434;2022-12-08T00:41:15;0.90;99.90
13589;DHT22;6865;52.552;13.434;2022-12-08T00:43:43;0.70;99.90
13589;DHT22;6865;52.552;13.434;2022-12-08T00:46:10;1.00;99.90
13589;DHT22;6865;52.552;13.434;2022-12-08T00:48:37;1.00;99.90
13589;DHT22;6865;52.552;13.434;2022-12-08T00:51:04;1.00;99.90
13589;DHT22;6865;52.552;13.434;2022-12-08T00:53:30;1.10;99.90
13589;DHT22;6865;52.552;13.434;2022-12-08T00:55:57;1.10;99.90
13589;DHT22;6865;52.552;13.434;2022-12-08T00:58:24;1.30;99.90
13589;DHT22;6865;52.552;13.434;2022-12-08T01:00:50;1.30;99.90
13589;DHT22;6865;52.552;13.434;2022-12-08T01:03:17;1.40;99.90
13589;DHT22;6865;52.552;13.434;2022-12-08T01:05:44;1.40;99.90
13589;DHT22;6865;52.552;13.434;2022-12-08T01:08:10;1.40;99.90
13589;DHT22;6865;52.552;13.434;2022-12-08T01:10:37;1.40;99.90
13589;DHT22;6865;52.552;13.434;2022-12-08T01:13:05;1.40;99.90
13589;DHT22;6865;52.552;13.434;2022-12-08T01:15:31;1.40;99.90
13589;DHT22;6865;52.552;13.434;2022-12-08T01:17:58;1.50;99.90
13589;DHT22;6865;52.552;13.434;2022-12-08T01:20:25;1.50;99.90
13589;DHT22;6865;52.552;13.434;2022-12-08T01:22:51;1.50;99.90
13589;DHT22;6865;52.552;13.434;2022-12-08T01:25:18;1.50;99.90
13589;DHT22;6865;52.552;13.434;2022-12-08T01:27:44;1.60;99.90
13589;DHT22;6865;52.552;13.434;2022-12-08T01:30:11;1.40;99.90
13589;DHT22;6865;52.552;13.434;2022-12-08T01:32:38;1.70;99.90
13589;DHT22;6865;52.552;13.434;2022-12-08T01:35:05;1.60;99.90
13589;DHT22;6865;52.552;13.434;2022-12-08T01:37:31;1.60;99.90
13589;DHT22;6865;52.552;13.434;2022-12-08T01:39:58;1.70;99.90
13589;DHT22;6865;52.552;13.434;2022-12-08T01:42:25;1.70;99.90
13589;DHT22;6865;52.552;13.434;2022-12-08T01:44:55;1.80;99.90
13589;DHT22;6865;52.552;13.434;2022-12-08T01:47:24;1.70;99.90
13589;DHT22;6865;52.552;13.434;2022-12-08T01:49:51;1.80;99.90
13589;DHT22;6865;52.552;13.434;2022-12-08T01:52:27;1.80;99.90
13589;DHT22;6865;52.552;13.434;2022-12-08T01:54:59;1.90;99.90
13589;DHT22;6865;52.552;13.434;2022-12-08T01:57:36;2.00;99.90
13589;DHT22;6865;52.552;13.434;2022-12-08T02:00:08;2.00;99.90
13589;DHT22;6865;52.552;13.434;2022-12-08T02:02:56;1.90;99.90
13589;DHT22;6865;52.552;13.434;2022-12-08T02:05:26;1.90;99.90
13589;DHT22;6865;52.552;13.434;2022-12-08T02:07:54;2.70;99.90
13589;DHT22;6865;52.552;13.434;2022-12-08T02:10:24;2.00;99.90
13589;DHT22;6865;52.552;13.434;2022-12-08T02:12:53;2.00;99.90
13589;DHT22;6865;52.552;13.434;2022-12-08T02:15:30;2.00;99.90
13589;DHT22;6865;52.552;13.434;2022-12-08T02:21:05;2.00;99.90
13589;DHT22;6865;52.552;13.434;2022-12-08T02:24:05;2.00;99.90
13589;DHT22;6865;52.552;13.434;2022-12-08T02:26:57;2.00;99.90
13589;DHT22;6865;52.552;13.434;2022-12-08T02:35:18;1.90;99.90
13589;DHT22;6865;52.552;13.434;2022-12-08T02:37:53;2.00;99.90
13589;DHT22;6865;52.552;13.434;2022-12-08T02:42:56;1.80;99.90
13589;DHT22;6865;52.552;13.434;2022-12-08T02:45:35;1.80;99.90
13589;DHT22;6865;52.552;13.434;2022-12-08T02:48:03;1.80;99.90
13589;DHT22;6865;52.552;13.434;2022-12-08T02:50:31;1.80;99.90
13589;DHT22;6865;52.552;13.434;2022-12-08T02:52:57;1.90;99.90
13589;DHT22;6865;52.552;13.434;2022-12-08T02:55:32;1.70;99.90
13589;DHT22;6865;52.552;13.434;2022-12-08T03:01:13;1.70;99.90
13589;DHT22;6865;52.552;13.434;2022-12-08T03:04:04;1.60;99.90
13589;DHT22;6865;52.552;13.434;2022-12-08T03:06:57;1.60;99.90
13589;DHT22;6865;52.552;13.434;2022-12-08T03:09:34;1.60;99.90
13589;DHT22;6865;52.552;13.434;2022-12-08T03:12:25;1.70;99.90
13589;DHT22;6865;52.552;13.434;2022-12-08T03:14:55;1.60;99.90
13589;DHT22;6865;52.552;13.434;2022-12-08T03:17:25;1.60;99.90
13589;DHT22;6865;52.552;13.434;2022-12-08T03:19:55;1.60;99.90
13589;DHT22;6865;52.552;13.434;2022-12-08T03:22:24;1.60;99.90
13589;DHT22;6865;52.552;13.434;2022-12-08T03:24:53;1.70;99.90
13589;DHT22;6865;52.552;13.434;2022-12-08T03:27:23;1.70;99.90
13589;DHT22;6865;52.552;13.434;2022-12-08T03:29:54;1.70;99.90
13589;DHT22;6865;52.552;13.434;2022-12-08T03:32:36;1.80;99.90
13589;DHT22;6865;52.552;13.434;2022-12-08T03:35:10;1.70;99.90
13589;DHT22;6865;52.552;13.434;2022-12-08T03:37:39;1.70;99.90
13589;DHT22;6865;52.552;13.434;2022-12-08T03:40:08;1.70;99.90
13589;DHT22;6865;52.552;13.434;2022-12-08T03:42:35;1.80;99.90
13589;DHT22;6865;52.552;13.434;2022-12-08T03:45:03;1.70;99.90
13589;DHT22;6865;52.552;13.434;2022-12-08T03:47:30;1.80;99.90
13589;DHT22;6865;52.552;13.434;2022-12-08T03:49:56;1.80;99.90
13589;DHT22;6865;52.552;13.434;2022-12-08T03:52:23;1.80;99.90
13589;DHT22;6865;52.552;13.434;2022-12-08T03:54:50;1.80;99.90
13589;DHT22;6865;52.552;13.434;2022-12-08T03:57:17;1.80;99.90
13589;DHT22;6865;52.552;13.434;2022-12-08T03:59:43;1.70;99.90
13589;DHT22;6865;52.552;13.434;2022-12-08T04:02:10;1.80;99.90
13589;DHT22;6865;52.552;13.434;2022-12-08T04:04:37;1.80;99.90
13589;DHT22;6865;52.552;13.434;2022-12-08T04:07:03;1.70;99.90
13589;DHT22;6865;52.552;13.434;2022-12-08T04:09:30;1.60;99.90
13589;DHT22;6865;52.552;13.434;2022-12-08T04:11:56;1.60;99.90
13589;DHT22;6865;52.552;13.434;2022-12-08T04:14:23;1.70;99.90
13589;DHT22;6865;52.552;13.434;2022-12-08T04:16:50;1.70;99.90
13589;DHT22;6865;52.552;13.434;2022-12-08T04:19:16;1.70;99.90
13589;DHT22;6865;52.552;13.434;2022-12-08T04:21:43;1.50;99.90
13589;DHT22;6865;52.552;13.434;2022-12-08T04:24:09;1.80;99.90
13589;DHT22;6865;52.552;13.434;2022-12-08T04:26:36;1.70;99.90
13589;DHT22;6865;52.552;13.434;2022-12-08T04:29:02;1.70;99.90
13589;DHT22;6865;52.552;13.434;2022-12-08T04:31:29;1.90;99.90
13589;DHT22;6865;52.552;13.434;2022-12-08T04:33:56;1.80;99.90
13589;DHT22;6865;52.552;13.434;2022-12-08T04:36:22;1.80;99.90
13589;DHT22;6865;52.552;13.434;2022-12-08T04:38:49;1.70;99.90
13589;DHT22;6865;52.552;13.434;2022-12-08T04:41:15;1.70;99.90
13589;DHT22;6865;52.552;13.434;2022-12-08T04:43:42;1.70;99.90
13589;DHT22;6865;52.552;13.434;2022-12-08T04:46:10;1.70;99.90
13589;DHT22;6865;52.552;13.434;2022-12-08T04:48:37;1.70;99.90
13589;DHT22;6865;52.552;13.434;2022-12-08T04:51:05;1.70;99.90
13589;DHT22;6865;52.552;13.434;2022-12-08T04:53:32;1.70;99.90
13589;DHT22;6865;52.552;13.434;2022-12-08T04:55:58;1.70;99.90
13589;DHT22;6865;52.552;13.434;2022-12-08T04:58:25;1.60;99.90
13589;DHT22;6865;52.552;13.434;2022-12-08T05:00:51;1.70;99.90
13589;DHT22;6865;52.552;13.434;2022-12-08T05:03:18;1.70;99.90
13589;DHT22;6865;52.552;13.434;2022-12-08T05:05:53;1.60;99.90
13589;DHT22;6865;52.552;13.434;2022-12-08T05:08:20;1.70;99.90
13589;DHT22;6865;52.552;13.434;2022-12-08T05:10:47;1.60;99.90
13589;DHT22;6865;52.552;13.434;2022-12-08T05:13:13;1.60;99.90
13589;DHT22;6865;52.552;13.434;2022-12-08T05:15:40;1.70;99.90
13589;DHT22;6865;52.552;13.434;2022-12-08T05:18:07;1.80;99.90
13589;DHT22;6865;52.552;13.434;2022-12-08T05:20:34;1.80;99.90
13589;DHT22;6865;52.552;13.434;2022-12-08T05:23:01;1.80;99.90
13589;DHT22;6865;52.552;13.434;2022-12-08T05:25:28;1.70;99.90
13589;DHT22;6865;52.552;13.434;2022-12-08T05:27:54;1.40;99.90
13589;DHT22;6865;52.552;13.434;2022-12-08T05:30:41;1.70;99.90
13589;DHT22;6865;52.552;13.434;2022-12-08T05:33:07;1.80;99.90
13589;DHT22;6865;52.552;13.434;2022-12-08T05:35:34;1.90;99.90
13589;DHT22;6865;52.552;13.434;2022-12-08T05:38:01;2.00;99.90
13589;DHT22;6865;52.552;13.434;2022-12-08T05:40:27;2.00;99.90
13589;DHT22;6865;52.552;13.434;2022-12-08T05:42:54;2.00;99.90
13589;DHT22;6865;52.552;13.434;2022-12-08T05:45:20;2.20;99.90
13589;DHT22;6865;52.552;13.434;2022-12-08T05:47:47;3.50;99.90
13589;DHT22;6865;52.552;13.434;2022-12-08T05:50:13;2.10;99.90
13589;DHT22;6865;52.552;13.434;2022-12-08T05:52:40;2.00;99.90
13589;DHT22;6865;52.552;13.434;2022-12-08T05:55:07;2.10;99.90
13589;DHT22;6865;52.552;13.434;2022-12-08T05:57:33;2.00;99.90
13589;DHT22;6865;52.552;13.434;2022-12-08T06:00:00;1.90;99.90
13589;DHT22;6865;52.552;13.434;2022-12-08T06:02:27;1.90;99.90
13589;DHT22;6865;52.552;13.434;2022-12-08T06:04:54;1.90;99.90
13589;DHT22;6865;52.552;13.434;2022-12-08T06:07:20;2.00;99.90
13589;DHT22;6865;52.552;13.434;2022-12-08T06:09:47;2.00;99.90
13589;DHT22;6865;52.552;13.434;2022-12-08T06:12:13;1.80;99.90
13589;DHT22;6865;52.552;13.434;2022-12-08T06:14:42;2.10;99.90
13589;DHT22;6865;52.552;13.434;2022-12-08T06:17:08;2.20;99.90
13589;DHT22;6865;52.552;13.434;2022-12-08T06:19:35;2.20;99.90
13589;DHT22;6865;52.552;13.434;2022-12-08T06:22:01;2.10;99.90
13589;DHT22;6865;52.552;13.434;2022-12-08T06:24:28;2.10;99.90
13589;DHT22;6865;52.552;13.434;2022-12-08T06:26:54;2.10;99.90
13589;DHT22;6865;52.552;13.434;2022-12-08T06:29:21;2.10;99.90
13589;DHT22;6865;52.552;13.434;2022-12-08T06:31:48;2.20;99.90
13589;DHT22;6865;52.552;13.434;2022-12-08T06:34:14;2.20;99.90
13589;DHT22;6865;52.552;13.434;2022-12-08T06:36:41;2.30;99.90
13589;DHT22;6865;52.552;13.434;2022-12-08T06:39:09;2.10;99.90
13589;DHT22;6865;52.552;13.434;2022-12-08T06:41:36;2.40;99.90
13589;DHT22;6865;52.552;13.434;2022-12-08T06:44:22;2.40;99.90
13589;DHT22;6865;52.552;13.434;2022-12-08T06:46:49;2.30;99.90
13589;DHT22;6865;52.552;13.434;2022-12-08T06:49:16;2.20;99.90
13589;DHT22;6865;52.552;13.434;2022-12-08T06:51:42;2.40;99.90
13589;DHT22;6865;52.552;13.434;2022-12-08T06:54:09;2.40;99.90
13589;DHT22;6865;52.552;13.434;2022-12-08T06:56:36;2.40;99.90
13589;DHT22;6865;52.552;13.434;2022-12-08T06:59:02;2.50;99.90
13589;DHT22;6865;52.552;13.434;2022-12-08T07:01:29;2.50;99.90
13589;DHT22;6865;52.552;13.434;2022-12-08T07:03:56;2.50;99.90
13589;DHT22;6865;52.552;13.434;2022-12-08T07:06:23;2.50;99.90
13589;DHT22;6865;52.552;13.434;2022-12-08T07:08:50;2.50;99.90
13589;DHT22;6865;52.552;13.434;2022-12-08T07:11:17;2.30;99.90
13589;DHT22;6865;52.552;13.434;2022-12-08T07:13:48;2.60;99.90
13589;DHT22;6865;52.552;13.434;2022-12-08T07:16:15;2.60;99.90
13589;DHT22;6865;52.552;13.434;2022-12-08T07:18:42;2.60;99.90
13589;DHT22;6865;52.552;13.434;2022-12-08T07:21:11;2.60;99.90
13589;DHT22;6865;52.552;13.434;2022-12-08T07:23:38;2.60;99.90
13589;DHT22;6865;52.552;13.434;2022-12-08T07:26:06;2.60;99.90
13589;DHT22;6865;52.552;13.434;2022-12-08T07:28:35;2.70;99.90
13589;DHT22;6865;52.552;13.434;2022-12-08T07:31:02;2.60;99.90
13589;DHT22;6865;52.552;13.434;2022-12-08T07:33:30;2.70;99.90
13589;DHT22;6865;52.552;13.434;2022-12-08T07:35:58;2.70;99.90
13589;DHT22;6865;52.552;13.434;2022-12-08T07:38:25;2.70;99.90
13589;DHT22;6865;52.552;13.434;2022-12-08T07:40:52;2.70;99.90
13589;DHT22;6865;52.552;13.434;2022-12-08T07:43:20;2.70;99.90
13589;DHT22;6865;52.552;13.434;2022-12-08T07:45:48;2.70;99.90
13589;DHT22;6865;52.552;13.434;2022-12-08T07:48:15;2.70;99.90
13589;DHT22;6865;52.552;13.434;2022-12-08T07:50:42;2.60;99.90
13589;DHT22;6865;52.552;13.434;2022-12-08T07:53:10;2.70;99.90
13589;DHT22;6865;52.552;13.434;2022-12-08T07:55:43;2.80;99.90
13589;DHT22;6865;52.552;13.434;2022-12-08T07:58:10;2.80;99.90
13589;DHT22;6865;52.552;13.434;2022-12-08T08:00:37;2.80;99.90
13589;DHT22;6865;52.552;13.434;2022-12-08T08:03:03;2.90;99.90
13589;DHT22;6865;52.552;13.434;2022-12-08T08:05:30;2.90;99.90
13589;DHT22;6865;52.552;13.434;2022-12-08T08:07:57;2.90;99.90
13589;DHT22;6865;52.552;13.434;2022-12-08T08:10:24;3.00;99.90
13589;DHT22;6865;52.552;13.434;2022-12-08T08:12:50;3.00;99.90
13589;DHT22;6865;52.552;13.434;2022-12-08T08:15:17;3.00;99.90
13589;DHT22;6865;52.552;13.434;2022-12-08T08:17:48;2.90;99.90
13589;DHT22;6865;52.552;13.434;2022-12-08T08:20:20;2.90;99.90
13589;DHT22;6865;52.552;13.434;2022-12-08T08:22:48;2.90;99.90
13589;DHT22;6865;52.552;13.434;2022-12-08T08:25:16;3.00;99.90
13589;DHT22;6865;52.552;13.434;2022-12-08T08:27:44;3.10;99.90
13589;DHT22;6865;52.552;13.434;2022-12-08T08:30:12;3.10;99.90
13589;DHT22;6865;52.552;13.434;2022-12-08T08:32:45;3.40;99.90
13589;DHT22;6865;52.552;13.434;2022-12-08T08:35:12;3.20;99.90
13589;DHT22;6865;52.552;13.434;2022-12-08T08:37:39;3.10;99.90
13589;DHT22;6865;52.552;13.434;2022-12-08T08:40:12;3.10;99.90
13589;DHT22;6865;52.552;13.434;2022-12-08T08:42:39;3.10;99.90
13589;DHT22;6865;52.552;13.434;2022-12-08T08:45:06;3.10;99.90
13589;DHT22;6865;52.552;13.434;2022-12-08T08:47:33;2.60;99.90
13589;DHT22;6865;52.552;13.434;2022-12-08T08:49:59;1.70;99.90
13589;DHT22;6865;52.552;13.434;2022-12-08T08:52:26;3.10;99.90
13589;DHT22;6865;52.552;13.434;2022-12-08T08:54:53;3.20;99.90
13589;DHT22;6865;52.552;13.434;2022-12-08T08:57:19;3.10;99.90
13589;DHT22;6865;52.552;13.434;2022-12-08T08:59:52;3.10;99.90
13589;DHT22;6865;52.552;13.434;2022-12-08T09:02:18;3.20;99.90
13589;DHT22;6865;52.552;13.434;2022-12-08T09:04:45;3.30;99.90
13589;DHT22;6865;52.552;13.434;2022-12-08T09:07:12;3.30;99.90
13589;DHT22;6865;52.552;13.434;2022-12-08T09:09:39;3.30;99.90
13589;DHT22;6865;52.552;13.434;2022-12-08T09:12:07;3.50;99.90
13589;DHT22;6865;52.552;13.434;2022-12-08T09:14:34;3.50;99.90
13589;DHT22;6865;52.552;13.434;2022-12-08T09:17:00;3.50;99.90
13589;DHT22;6865;52.552;13.434;2022-12-08T09:19:27;3.50;99.90
13589;DHT22;6865;52.552;13.434;2022-12-08T09:21:54;3.00;99.90
13589;DHT22;6865;52.552;13.434;2022-12-08T09:24:20;3.50;99.90
13589;DHT22;6865;52.552;13.434;2022-12-08T09:26:47;3.60;99.90
13589;DHT22;6865;52.552;13.434;2022-12-08T09:29:13;3.60;99.90
13589;DHT22;6865;52.552;13.434;2022-12-08T09:31:40;3.60;99.90
13589;DHT22;6865;52.552;13.434;2022-12-08T09:34:07;3.60;99.90
13589;DHT22;6865;52.552;13.434;2022-12-08T09:36:35;3.00;99.90
13589;DHT22;6865;52.552;13.434;2022-12-08T09:39:02;3.40;99.90
13589;DHT22;6865;52.552;13.434;2022-12-08T09:41:40;3.40;99.90
13589;DHT22;6865;52.552;13.434;2022-12-08T09:47:27;3.50;99.90
13589;DHT22;6865;52.552;13.434;2022-12-08T09:52:39;3.70;99.90
13589;DHT22;6865;52.552;13.434;2022-12-08T09:55:21;3.60;99.90
13589;DHT22;6865;52.552;13.434;2022-12-08T09:57:56;3.70;99.90
13589;DHT22;6865;52.552;13.434;2022-12-08T10:00:25;3.60;99.90
13589;DHT22;6865;52.552;13.434;2022-12-08T10:02:52;3.40;99.90
13589;DHT22;6865;52.552;13.434;2022-12-08T10:05:21;3.70;99.90
13589;DHT22;6865;52.552;13.434;2022-12-08T10:08:14;3.60;99.90
13589;DHT22;6865;52.552;13.434;2022-12-08T10:11:11;3.60;99.90
13589;DHT22;6865;52.552;13.434;2022-12-08T10:14:13;3.60;99.90
13589;DHT22;6865;52.552;13.434;2022-12-08T10:16:44;3.70;99.90
13589;DHT22;6865;52.552;13.434;2022-12-08T10:19:17;3.60;99.90
13589;DHT22;6865;52.552;13.434;2022-12-08T10:21:45;3.00;99.90
13589;DHT22;6865;52.552;13.434;2022-12-08T10:24:21;3.50;99.90
13589;DHT22;6865;52.552;13.434;2022-12-08T10:26:50;3.50;99.90
13589;DHT22;6865;52.552;13.434;2022-12-08T10:29:16;3.50;99.90
13589;DHT22;6865;52.552;13.434;2022-12-08T10:31:44;3.60;99.90
13589;DHT22;6865;52.552;13.434;2022-12-08T10:34:20;3.60;99.90
13589;DHT22;6865;52.552;13.434;2022-12-08T10:36:57;3.70;99.90
13589;DHT22;6865;52.552;13.434;2022-12-08T10:42:19;3.70;99.90
13589;DHT22;6865;52.552;13.434;2022-12-08T10:45:02;3.60;99.90
13589;DHT22;6865;52.552;13.434;2022-12-08T10:47:34;3.70;99.90
13589;DHT22;6865;52.552;13.434;2022-12-08T10:50:17;3.80;99.90
13589;DHT22;6865;52.552;13.434;2022-12-08T10:52:45;3.80;99.90
13589;DHT22;6865;52.552;13.434;2022-12-08T10:55:20;3.80;99.90
13589;DHT22;6865;52.552;13.434;2022-12-08T10:57:46;3.80;99.90
13589;DHT22;6865;52.552;13.434;2022-12-08T11:00:26;3.80;99.90
13589;DHT22;6865;52.552;13.434;2022-12-08T11:03:02;3.80;99.90
13589;DHT22;6865;52.552;13.434;2022-12-08T11:05:34;3.80;99.90
13589;DHT22;6865;52.552;13.434;2022-12-08T11:08:03;3.60;99.90
13589;DHT22;6865;52.552;13.434;2022-12-08T11:10:43;3.70;99.90
13589;DHT22;6865;52.552;13.434;2022-12-08T11:13:24;3.70;99.90
13589;DHT22;6865;52.552;13.434;2022-12-08T11:15:53;3.80;99.90
13589;DHT22;6865;52.552;13.434;2022-12-08T11:18:24;3.80;99.90
13589;DHT22;6865;52.552;13.434;2022-12-08T11:20:57;3.80;99.90
13589;DHT22;6865;52.552;13.434;2022-12-08T11:23:26;3.80;99.90
13589;DHT22;6865;52.552;13.434;2022-12-08T11:25:56;3.60;99.90
13589;DHT22;6865;52.552;13.434;2022-12-08T11:28:24;3.50;99.90
13589;DHT22;6865;52.552;13.434;2022-12-08T11:30:58;3.50;99.90
13589;DHT22;6865;52.552;13.434;2022-12-08T11:33:27;3.30;99.90
13589;DHT22;6865;52.552;13.434;2022-12-08T11:36:05;3.20;99.90
13589;DHT22;6865;52.552;13.434;2022-12-08T11:38:33;3.10;99.90
13589;DHT22;6865;52.552;13.434;2022-12-08T11:41:50;3.10;99.90
13589;DHT22;6865;52.552;13.434;2022-12-08T11:47:40;3.00;99.90
13589;DHT22;6865;52.552;13.434;2022-12-08T11:49:46;3.00;99.90
13589;DHT22;6865;52.552;13.434;2022-12-08T11:52:34;2.90;99.90
13589;DHT22;6865;52.552;13.434;2022-12-08T11:55:37;2.90;99.90
13589;DHT22;6865;52.552;13.434;2022-12-08T11:58:15;2.90;99.90
13589;DHT22;6865;52.552;13.434;2022-12-08T12:00:43;3.00;99.90
13589;DHT22;6865;52.552;13.434;2022-12-08T12:03:28;3.10;99.90
13589;DHT22;6865;52.552;13.434;2022-12-08T12:06:36;3.10;99.90
13589;DHT22;6865;52.552;13.434;2022-12-08T12:09:50;3.10;99.90
13589;DHT22;6865;52.552;13.434;2022-12-08T12:16:04;3.00;99.90
13589;DHT22;6865;52.552;13.434;2022-12-08T12:18:51;3.10;99.90
13589;DHT22;6865;52.552;13.434;2022-12-08T12:21:24;3.20;99.90
13589;DHT22;6865;52.552;13.434;2022-12-08T12:24:17;3.20;99.90
13589;DHT22;6865;52.552;13.434;2022-12-08T12:27:06;3.20;99.90
13589;DHT22;6865;52.552;13.434;2022-12-08T12:30:19;3.20;99.90
13589;DHT22;6865;52.552;13.434;2022-12-08T12:32:54;3.20;99.90
13589;DHT22;6865;52.552;13.434;2022-12-08T12:35:32;3.20;99.90
13589;DHT22;6865;52.552;13.434;2022-12-08T12:38:06;3.20;99.90
13589;DHT22;6865;52.552;13.434;2022-12-08T12:41:01;3.20;99.90
13589;DHT22;6865;52.552;13.434;2022-12-08T12:43:32;3.30;99.90
13589;DHT22;6865;52.552;13.434;2022-12-08T12:48:51;3.30;99.90
13589;DHT22;6865;52.552;13.434;2022-12-08T12:54:23;3.30;99.90
13589;DHT22;6865;52.552;13.434;2022-12-08T13:02:38;3.50;99.90
13589;DHT22;6865;52.552;13.434;2022-12-08T13:05:24;3.50;99.90
13589;DHT22;6865;52.552;13.434;2022-12-08T13:07:53;3.40;99.90
13589;DHT22;6865;52.552;13.434;2022-12-08T13:10:24;3.50;99.90
13589;DHT22;6865;52.552;13.434;2022-12-08T13:15:39;3.60;99.90
13589;DHT22;6865;52.552;13.434;2022-12-08T13:18:17;3.60;99.90
13589;DHT22;6865;52.552;13.434;2022-12-08T13:20:46;3.50;99.90
13589;DHT22;6865;52.552;13.434;2022-12-08T13:26:27;3.40;99.90
13589;DHT22;6865;52.552;13.434;2022-12-08T13:34:54;3.10;99.90
13589;DHT22;6865;52.552;13.434;2022-12-08T13:37:32;3.00;99.90
13589;DHT22;6865;52.552;13.434;2022-12-08T13:40:23;3.00;99.90
13589;DHT22;6865;52.552;13.434;2022-12-08T13:42:57;3.00;99.90
13589;DHT22;6865;52.552;13.434;2022-12-08T13:45:28;3.00;99.90
13589;DHT22;6865;52.552;13.434;2022-12-08T13:48:39;3.00;99.90
13589;DHT22;6865;52.552;13.434;2022-12-08T13:51:41;3.00;99.90
13589;DHT22;6865;52.552;13.434;2022-12-08T13:54:39;3.20;99.90
13589;DHT22;6865;52.552;13.434;2022-12-08T13:57:30;3.10;99.90
13589;DHT22;6865;52.552;13.434;2022-12-08T14:03:00;3.10;99.90
13589;DHT22;6865;52.552;13.434;2022-12-08T14:05:38;3.30;99.90
13589;DHT22;6865;52.552;13.434;2022-12-08T14:08:30;3.30;99.90
13589;DHT22;6865;52.552;13.434;2022-12-08T14:11:38;3.20;99.90
13589;DHT22;6865;52.552;13.434;2022-12-08T14:14:11;3.20;99.90
13589;DHT22;6865;52.552;13.434;2022-12-08T14:16:52;3.20;99.90
13589;DHT22;6865;52.552;13.434;2022-12-08T14:19:31;3.20;99.90
13589;DHT22;6865;52.552;13.434;2022-12-08T14:22:08;3.20;99.90
13589;DHT22;6865;52.552;13.434;2022-12-08T14:24:36;3.10;99.90
13589;DHT22;6865;52.552;13.434;2022-12-08T14:27:05;2.90;99.90
13589;DHT22;6865;52.552;13.434;2022-12-08T14:30:07;3.20;99.90
13589;DHT22;6865;52.552;13.434;2022-12-08T14:37:37;3.20;99.90
13589;DHT22;6865;52.552;13.434;2022-12-08T14:40:09;3.20;99.90
13589;DHT22;6865;52.552;13.434;2022-12-08T14:42:47;3.30;99.90
13589;DHT22;6865;52.552;13.434;2022-12-08T14:45:16;3.20;99.90
13589;DHT22;6865;52.552;13.434;2022-12-08T14:47:43;3.10;99.90
13589;DHT22;6865;52.552;13.434;2022-12-08T14:51:31;3.10;99.90
13589;DHT22;6865;52.552;13.434;2022-12-08T14:53:34;3.10;99.90
13589;DHT22;6865;52.552;13.434;2022-12-08T14:56:10;3.10;99.90
13589;DHT22;6865;52.552;13.434;2022-12-08T14:58:40;3.10;99.90
13589;DHT22;6865;52.552;13.434;2022-12-08T15:01:07;3.00;99.90
13589;DHT22;6865;52.552;13.434;2022-12-08T15:03:37;3.00;99.90
13589;DHT22;6865;52.552;13.434;2022-12-08T15:06:06;3.20;99.90
13589;DHT22;6865;52.552;13.434;2022-12-08T15:08:51;3.20;99.90
13589;DHT22;6865;52.552;13.434;2022-12-08T15:11:28;3.10;99.90
13589;DHT22;6865;52.552;13.434;2022-12-08T15:13:55;3.10;99.90
13589;DHT22;6865;52.552;13.434;2022-12-08T15:16:42;3.10;99.90
13589;DHT22;6865;52.552;13.434;2022-12-08T15:19:18;3.20;99.90
13589;DHT22;6865;52.552;13.434;2022-12-08T15:21:50;3.10;99.90
13589;DHT22;6865;52.552;13.434;2022-12-08T15:24:17;3.20;99.90
13589;DHT22;6865;52.552;13.434;2022-12-08T15:26:47;3.10;99.90
13589;DHT22;6865;52.552;13.434;2022-12-08T15:29:23;3.10;99.90
13589;DHT22;6865;52.552;13.434;2022-12-08T15:31:52;3.10;99.90
13589;DHT22;6865;52.552;13.434;2022-12-08T15:34:19;3.00;99.90
13589;DHT22;6865;52.552;13.434;2022-12-08T15:36:48;3.30;99.90
13589;DHT22;6865;52.552;13.434;2022-12-08T15:39:34;3.00;99.90
13589;DHT22;6865;52.552;13.434;2022-12-08T15:42:04;3.00;99.90
13589;DHT22;6865;52.552;13.434;2022-12-08T15:44:31;3.00;99.90
13589;DHT22;6865;52.552;13.434;2022-12-08T15:46:58;3.10;99.90
13589;DHT22;6865;52.552;13.434;2022-12-08T15:49:25;2.90;99.90
13589;DHT22;6865;52.552;13.434;2022-12-08T15:51:52;2.90;99.90
13589;DHT22;6865;52.552;13.434;2022-12-08T15:54:35;2.80;99.90
13589;DHT22;6865;52.552;13.434;2022-12-08T15:57:02;2.80;99.90
13589;DHT22;6865;52.552;13.434;2022-12-08T15:59:44;2.80;99.90
13589;DHT22;6865;52.552;13.434;2022-12-08T16:02:12;2.80;99.90
13589;DHT22;6865;52.552;13.434;2022-12-08T16:04:48;2.80;99.90
13589;DHT22;6865;52.552;13.434;2022-12-08T16:07:34;2.80;99.90
13589;DHT22;6865;52.552;13.434;2022-12-08T16:10:04;2.80;99.90
13589;DHT22;6865;52.552;13.434;2022-12-08T16:12:32;2.80;99.90
13589;DHT22;6865;52.552;13.434;2022-12-08T16:15:40;2.80;99.90
13589;DHT22;6865;52.552;13.434;2022-12-08T16:18:27;2.70;99.90
13589;DHT22;6865;52.552;13.434;2022-12-08T16:20:54;2.70;99.90
13589;DHT22;6865;52.552;13.434;2022-12-08T16:23:41;2.70;99.90
13589;DHT22;6865;52.552;13.434;2022-12-08T16:26:21;2.60;99.90
13589;DHT22;6865;52.552;13.434;2022-12-08T16:29:17;2.60;99.90
13589;DHT22;6865;52.552;13.434;2022-12-08T16:31:44;2.60;99.90
13589;DHT22;6865;52.552;13.434;2022-12-08T16:34:11;2.60;99.90
13589;DHT22;6865;52.552;13.434;2022-12-08T16:36:38;2.60;99.90
13589;DHT22;6865;52.552;13.434;2022-12-08T16:39:05;2.60;99.90
13589;DHT22;6865;52.552;13.434;2022-12-08T16:41:31;2.60;99.90
13589;DHT22;6865;52.552;13.434;2022-12-08T16:44:17;2.70;99.90
13589;DHT22;6865;52.552;13.434;2022-12-08T16:46:43;2.60;99.90
13589;DHT22;6865;52.552;13.434;2022-12-08T16:49:10;2.60;99.90
13589;DHT22;6865;52.552;13.434;2022-12-08T16:51:36;2.60;99.90
13589;DHT22;6865;52.552;13.434;2022-12-08T16:54:03;2.50;99.90
13589;DHT22;6865;52.552;13.434;2022-12-08T16:56:30;2.50;99.90
13589;DHT22;6865;52.552;13.434;2022-12-08T16:59:00;2.50;99.90
13589;DHT22;6865;52.552;13.434;2022-12-08T17:01:27;2.40;99.90
13589;DHT22;6865;52.552;13.434;2022-12-08T17:03:53;2.40;99.90
13589;DHT22;6865;52.552;13.434;2022-12-08T17:06:40;2.40;99.90
13589;DHT22;6865;52.552;13.434;2022-12-08T17:09:07;2.30;99.90
13589;DHT22;6865;52.552;13.434;2022-12-08T17:11:33;2.40;99.90
13589;DHT22;6865;52.552;13.434;2022-12-08T17:14:08;2.30;99.90
13589;DHT22;6865;52.552;13.434;2022-12-08T17:16:34;2.30;99.90
13589;DHT22;6865;52.552;13.434;2022-12-08T17:19:01;2.30;99.90